Esl America — 5BPP4 — position and weather

sailwx.info

Track history (hours):
 
Tides and Currents Weather Stations Pressure Air Temp Water Temp Dewpoint Dewpoint Depression Visibility Wind Speed Wind Dir Waves Ship Positions

Esl America

Last reported at 2018-May-25 11:49 UTC. Time now 2018-Jun-21 14:29 UTC.
Position N 27°40' W 015°13'.
Warning: this ship's position is 27 days out of date.

Length 143 m; draft 9.7 m.

Type: Ship (hazmat cat A). MMSI: 212558000.

Date/timePositionNaut miles runAvg speedWind from/ knotsBaromVisibWave heightAir tempDewpointWater temp
2018-May-25 11:49N 27°40' W 015°13'413.8
2018-May-25 11:30N 27°44' W 015°11'714.1
2018-May-25 11:00N 27°50' W 015°08'713.8
2018-May-25 10:30N 27°57' W 015°05'713.7
2018-May-25 10:00N 28°03' W 015°03'714.0
2018-May-25 09:30N 28°10' W 014°60'713.8
2018-May-25 09:00N 28°16' W 014°57'713.8
2018-May-25 08:30N 28°23' W 014°55'713.8
2018-May-25 08:00N 28°29' W 014°53'713.5
2018-May-25 07:30N 28°36' W 014°51'  
2018-May-21 11:53N 48°11' W 006°35'11713.0
2018-May-21 02:53N 49°29' W 004°23'2814.3
2018-May-21 00:56N 49°42' W 003°45'613.3
2018-May-21 00:28N 49°45' W 003°37'612.9
2018-May-20 23:59N 49°48' W 003°28'612.5
2018-May-20 23:30N 49°51' W 003°20'612.2
2018-May-20 23:00N 49°54' W 003°12'612.0
2018-May-20 22:30N 49°57' W 003°03'612.0
2018-May-20 22:00N 49°59' W 002°55'612.3
2018-May-20 21:30N 50°01' W 002°46'1012.8
2018-May-20 20:43N 50°03' W 002°31'2314.5
2018-May-20 19:06N 50°09' W 001°55'316.0
2018-May-20 18:53N 50°10' W 001°50'616.1
2018-May-20 18:29N 50°13' W 001°41'816.4
2018-May-20 18:00N 50°15' W 001°29'4315.6
2018-May-20 15:16N 50°27' W 000°25'413.8
2018-May-20 14:58N 50°28' W 000°19'613.4
2018-May-20 14:30N 50°30' W 000°09'612.8
2018-May-20 14:01N 50°31' E 000°00'612.3
2018-May-20 13:29N 50°33' E 000°10'1111.7
2018-May-20 12:33N 50°36' E 000°27'411.7
2018-May-20 12:14N 50°37' E 000°32'4414.3
2018-May-20 09:11N 51°04' E 001°28'315.8
2018-May-20 09:00N 51°06' E 001°31'815.1
2018-May-20 08:30N 51°11' E 001°40'714.0
2018-May-20 08:00N 51°16' E 001°47'713.3
2018-May-20 07:30N 51°22' E 001°52'4211.7
2018-May-20 03:53N 51°54' E 002°36'44213.1
2018-May-18 18:05N 57°47' E 010°17'113.9
2018-May-18 18:00N 57°48' E 010°19'713.8
2018-May-18 17:30N 57°49' E 010°32'713.2
2018-May-18 17:00N 57°49' E 010°44'713.4
2018-May-18 16:30N 57°44' E 010°53'713.2
2018-May-18 16:01N 57°40' E 011°02'713.0
2018-May-18 15:31N 57°35' E 011°11'713.1
2018-May-18 15:01N 57°31' E 011°20'612.5
2018-May-18 14:30N 57°26' E 011°27'713.3
2018-May-18 14:00N 57°20' E 011°31'813.6
2018-May-18 13:24N 57°12' E 011°36'513.5
2018-May-18 13:00N 57°07' E 011°39'11911.8
2018-May-18 02:55N 55°10' E 011°03'612.7
2018-May-18 02:29N 55°04' E 011°02'612.1
2018-May-18 02:00N 54°59' E 010°59'510.9
2018-May-18 01:30N 54°55' E 010°52'611.8
2018-May-18 01:00N 54°50' E 010°50'612.9
2018-May-18 00:31N 54°43' E 010°47'611.5
2018-May-18 00:00N 54°39' E 010°53'612.8
2018-May-17 23:30N 54°36' E 011°03'712.8
2018-May-17 22:57N 54°35' E 011°15'713.2
2018-May-17 22:24N 54°32' E 011°26'712.9
2018-May-17 21:50N 54°28' E 011°37'413.0
2018-May-17 21:30N 54°27' E 011°44'613.1
2018-May-17 21:00N 54°26' E 011°55'8812.6
2018-May-17 14:00N 55°08' E 014°10'2813.4
2018-May-17 11:55N 55°28' E 014°42'613.5
2018-May-17 11:30N 55°31' E 014°51'1313.5
2018-May-17 10:33N 55°38' E 015°10'113.4
2018-May-17 10:30N 55°38' E 015°11'713.5
2018-May-17 10:00N 55°41' E 015°22'16812.6
2018-May-16 20:42N 58°14' E 017°29'413.6
2018-May-16 20:25N 58°18' E 017°29'613.6
2018-May-16 20:00N 58°23' E 017°30'913.4
2018-May-16 19:19N 58°32' E 017°32'412.2
2018-May-16 19:00N 58°36' E 017°30'710.7
2018-May-16 18:18N 58°37' E 017°15'411.9
2018-May-16 18:00N 58°38' E 017°09'611.8
2018-May-16 17:30N 58°37' E 016°58'611.6
2018-May-16 17:01N 58°37' E 016°47'611.0
2018-May-16 16:30N 58°38' E 016°36'510.7
2018-May-16 16:00N 58°39' E 016°26'510.3
2018-May-16 15:30N 58°37' E 016°17'1 2.0
2018-May-16 15:00N 58°37' E 016°15'0 0.0
2018-May-16 14:30N 58°37' E 016°15'0 0.0
2018-May-16 14:00N 58°37' E 016°15'0 0.0
2018-May-16 13:30N 58°37' E 016°15'0 0.0
2018-May-16 12:59N 58°37' E 016°15'0 0.0
2018-May-16 12:29N 58°37' E 016°15'0 0.0
2018-May-16 11:59N 58°37' E 016°15'0 0.0
2018-May-16 11:29N 58°37' E 016°15'0 0.0
2018-May-16 10:59N 58°37' E 016°15'0 0.0
2018-May-16 10:29N 58°37' E 016°15'0 0.0
2018-May-16 09:59N 58°37' E 016°15'0 0.0
2018-May-16 09:29N 58°37' E 016°15'0 0.0
2018-May-16 08:59N 58°37' E 016°15'0 0.0
2018-May-16 08:29N 58°37' E 016°15'0 0.0
2018-May-16 07:59N 58°37' E 016°15'0 0.0
2018-May-16 07:29N 58°37' E 016°15'0 0.0
2018-May-16 06:58N 58°37' E 016°15'0 0.0
2018-May-16 06:25N 58°37' E 016°15'0 0.0
2018-May-16 05:58N 58°37' E 016°15'0 0.0
2018-May-16 05:28N 58°37' E 016°15'0 0.0
2018-May-16 04:58N 58°37' E 016°15'0 0.0
2018-May-16 04:28N 58°37' E 016°15'0 0.0
2018-May-16 03:59N 58°37' E 016°15'0 0.0
2018-May-16 03:29N 58°37' E 016°15'0 0.0
2018-May-16 02:59N 58°37' E 016°15'0 0.0
2018-May-16 02:29N 58°37' E 016°15'0 0.0
2018-May-16 01:59N 58°37' E 016°15'0 0.0
2018-May-16 01:29N 58°37' E 016°15'0 0.0
2018-May-16 00:59N 58°37' E 016°15'0 0.0
2018-May-16 00:29N 58°37' E 016°15'0 0.0
2018-May-15 23:59N 58°37' E 016°15'0 0.0
2018-May-15 23:29N 58°37' E 016°15'0 0.0
2018-May-15 22:59N 58°37' E 016°15'0 0.0
2018-May-15 22:29N 58°37' E 016°15'0 0.0
2018-May-15 21:59N 58°37' E 016°15'0 0.0
2018-May-15 21:29N 58°37' E 016°15'0 0.0
2018-May-15 20:59N 58°37' E 016°15'0 0.0
2018-May-15 20:29N 58°37' E 016°15'0 0.0
2018-May-15 19:59N 58°37' E 016°15'0 0.0
2018-May-15 19:29N 58°37' E 016°15'0 0.0
2018-May-15 18:59N 58°37' E 016°15'0 0.0
2018-May-15 18:29N 58°37' E 016°15'0 0.0
2018-May-15 17:59N 58°37' E 016°15'0 0.0
2018-May-15 17:29N 58°37' E 016°15'0 0.0
2018-May-15 16:59N 58°37' E 016°15'0 0.0
2018-May-15 16:29N 58°37' E 016°15'0 0.0
2018-May-15 15:59N 58°37' E 016°15'0 0.0
2018-May-15 15:29N 58°37' E 016°15'0 0.0
2018-May-15 15:00N 58°37' E 016°15'0 0.0
2018-May-15 14:30N 58°37' E 016°15'0 0.0
2018-May-15 14:00N 58°37' E 016°15'0 0.0
2018-May-15 13:30N 58°37' E 016°15'0 0.0
2018-May-15 12:59N 58°37' E 016°15'0 0.0
2018-May-15 12:29N 58°37' E 016°15'0 0.0
2018-May-15 11:59N 58°37' E 016°15'  
Track history (hours):
 
Tides and Currents Weather Stations Pressure Air Temp Water Temp Dewpoint Dewpoint Depression Visibility Wind Speed Wind Dir Waves Ship Positions

Esl America

Last reported at 2018-May-25 11:49 UTC. Time now 2018-Jun-21 14:29 UTC.
Position N 27°40' W 015°13'.
Warning: this ship's position is 27 days out of date.

Length 143 m; draft 9.7 m.

Type: Ship (hazmat cat A). MMSI: 212558000.

Date/timePositionNaut miles runAvg speedWind from/ knotsBaromVisibWave heightAir tempDewpointWater temp
2018-May-25 11:49N 27°40' W 015°13'413.8
2018-May-25 11:30N 27°44' W 015°11'714.1
2018-May-25 11:00N 27°50' W 015°08'713.8
2018-May-25 10:30N 27°57' W 015°05'713.7
2018-May-25 10:00N 28°03' W 015°03'714.0
2018-May-25 09:30N 28°10' W 014°60'713.8
2018-May-25 09:00N 28°16' W 014°57'713.8
2018-May-25 08:30N 28°23' W 014°55'713.8
2018-May-25 08:00N 28°29' W 014°53'713.5
2018-May-25 07:30N 28°36' W 014°51'  
2018-May-21 11:53N 48°11' W 006°35'11713.0
2018-May-21 02:53N 49°29' W 004°23'2814.3
2018-May-21 00:56N 49°42' W 003°45'613.3
2018-May-21 00:28N 49°45' W 003°37'612.9
2018-May-20 23:59N 49°48' W 003°28'612.5
2018-May-20 23:30N 49°51' W 003°20'612.2
2018-May-20 23:00N 49°54' W 003°12'612.0
2018-May-20 22:30N 49°57' W 003°03'612.0
2018-May-20 22:00N 49°59' W 002°55'612.3
2018-May-20 21:30N 50°01' W 002°46'1012.8
2018-May-20 20:43N 50°03' W 002°31'2314.5
2018-May-20 19:06N 50°09' W 001°55'316.0
2018-May-20 18:53N 50°10' W 001°50'616.1
2018-May-20 18:29N 50°13' W 001°41'816.4
2018-May-20 18:00N 50°15' W 001°29'4315.6
2018-May-20 15:16N 50°27' W 000°25'413.8
2018-May-20 14:58N 50°28' W 000°19'613.4
2018-May-20 14:30N 50°30' W 000°09'612.8
2018-May-20 14:01N 50°31' E 000°00'612.3
2018-May-20 13:29N 50°33' E 000°10'1111.7
2018-May-20 12:33N 50°36' E 000°27'411.7
2018-May-20 12:14N 50°37' E 000°32'4414.3
2018-May-20 09:11N 51°04' E 001°28'315.8
2018-May-20 09:00N 51°06' E 001°31'815.1
2018-May-20 08:30N 51°11' E 001°40'714.0
2018-May-20 08:00N 51°16' E 001°47'713.3
2018-May-20 07:30N 51°22' E 001°52'4211.7
2018-May-20 03:53N 51°54' E 002°36'44213.1
2018-May-18 18:05N 57°47' E 010°17'113.9
2018-May-18 18:00N 57°48' E 010°19'713.8
2018-May-18 17:30N 57°49' E 010°32'713.2
2018-May-18 17:00N 57°49' E 010°44'713.4
2018-May-18 16:30N 57°44' E 010°53'713.2
2018-May-18 16:01N 57°40' E 011°02'713.0
2018-May-18 15:31N 57°35' E 011°11'713.1
2018-May-18 15:01N 57°31' E 011°20'612.5
2018-May-18 14:30N 57°26' E 011°27'713.3
2018-May-18 14:00N 57°20' E 011°31'813.6
2018-May-18 13:24N 57°12' E 011°36'513.5
2018-May-18 13:00N 57°07' E 011°39'11911.8
2018-May-18 02:55N 55°10' E 011°03'612.7
2018-May-18 02:29N 55°04' E 011°02'612.1
2018-May-18 02:00N 54°59' E 010°59'510.9
2018-May-18 01:30N 54°55' E 010°52'611.8
2018-May-18 01:00N 54°50' E 010°50'612.9
2018-May-18 00:31N 54°43' E 010°47'611.5
2018-May-18 00:00N 54°39' E 010°53'612.8
2018-May-17 23:30N 54°36' E 011°03'712.8
2018-May-17 22:57N 54°35' E 011°15'713.2
2018-May-17 22:24N 54°32' E 011°26'712.9
2018-May-17 21:50N 54°28' E 011°37'413.0
2018-May-17 21:30N 54°27' E 011°44'613.1
2018-May-17 21:00N 54°26' E 011°55'8812.6
2018-May-17 14:00N 55°08' E 014°10'2813.4
2018-May-17 11:55N 55°28' E 014°42'613.5
2018-May-17 11:30N 55°31' E 014°51'1313.5
2018-May-17 10:33N 55°38' E 015°10'113.4
2018-May-17 10:30N 55°38' E 015°11'713.5
2018-May-17 10:00N 55°41' E 015°22'16812.6
2018-May-16 20:42N 58°14' E 017°29'413.6
2018-May-16 20:25N 58°18' E 017°29'613.6
2018-May-16 20:00N 58°23' E 017°30'913.4
2018-May-16 19:19N 58°32' E 017°32'412.2
2018-May-16 19:00N 58°36' E 017°30'710.7
2018-May-16 18:18N 58°37' E 017°15'411.9
2018-May-16 18:00N 58°38' E 017°09'611.8
2018-May-16 17:30N 58°37' E 016°58'611.6
2018-May-16 17:01N 58°37' E 016°47'611.0
2018-May-16 16:30N 58°38' E 016°36'510.7
2018-May-16 16:00N 58°39' E 016°26'510.3
2018-May-16 15:30N 58°37' E 016°17'1 2.0
2018-May-16 15:00N 58°37' E 016°15'0 0.0
2018-May-16 14:30N 58°37' E 016°15'0 0.0
2018-May-16 14:00N 58°37' E 016°15'0 0.0
2018-May-16 13:30N 58°37' E 016°15'0 0.0
2018-May-16 12:59N 58°37' E 016°15'0 0.0
2018-May-16 12:29N 58°37' E 016°15'0 0.0
2018-May-16 11:59N 58°37' E 016°15'0 0.0
2018-May-16 11:29N 58°37' E 016°15'0 0.0
2018-May-16 10:59N 58°37' E 016°15'0 0.0
2018-May-16 10:29N 58°37' E 016°15'0 0.0
2018-May-16 09:59N 58°37' E 016°15'0 0.0
2018-May-16 09:29N 58°37' E 016°15'0 0.0
2018-May-16 08:59N 58°37' E 016°15'0 0.0
2018-May-16 08:29N 58°37' E 016°15'0 0.0
2018-May-16 07:59N 58°37' E 016°15'0 0.0
2018-May-16 07:29N 58°37' E 016°15'0 0.0
2018-May-16 06:58N 58°37' E 016°15'0 0.0
2018-May-16 06:25N 58°37' E 016°15'0 0.0
2018-May-16 05:58N 58°37' E 016°15'0 0.0
2018-May-16 05:28N 58°37' E 016°15'0 0.0
2018-May-16 04:58N 58°37' E 016°15'0 0.0
2018-May-16 04:28N 58°37' E 016°15'0 0.0
2018-May-16 03:59N 58°37' E 016°15'0 0.0
2018-May-16 03:29N 58°37' E 016°15'0 0.0
2018-May-16 02:59N 58°37' E 016°15'0 0.0
2018-May-16 02:29N 58°37' E 016°15'0 0.0
2018-May-16 01:59N 58°37' E 016°15'0 0.0
2018-May-16 01:29N 58°37' E 016°15'0 0.0
2018-May-16 00:59N 58°37' E 016°15'0 0.0
2018-May-16 00:29N 58°37' E 016°15'0 0.0
2018-May-15 23:59N 58°37' E 016°15'0 0.0
2018-May-15 23:29N 58°37' E 016°15'0 0.0
2018-May-15 22:59N 58°37' E 016°15'0 0.0
2018-May-15 22:29N 58°37' E 016°15'0 0.0
2018-May-15 21:59N 58°37' E 016°15'0 0.0
2018-May-15 21:29N 58°37' E 016°15'0 0.0
2018-May-15 20:59N 58°37' E 016°15'0 0.0
2018-May-15 20:29N 58°37' E 016°15'0 0.0
2018-May-15 19:59N 58°37' E 016°15'0 0.0
2018-May-15 19:29N 58°37' E 016°15'0 0.0
2018-May-15 18:59N 58°37' E 016°15'0 0.0
2018-May-15 18:29N 58°37' E 016°15'0 0.0
2018-May-15 17:59N 58°37' E 016°15'0 0.0
2018-May-15 17:29N 58°37' E 016°15'0 0.0
2018-May-15 16:59N 58°37' E 016°15'0 0.0
2018-May-15 16:29N 58°37' E 016°15'0 0.0
2018-May-15 15:59N 58°37' E 016°15'0 0.0
2018-May-15 15:29N 58°37' E 016°15'0 0.0
2018-May-15 15:00N 58°37' E 016°15'0 0.0
2018-May-15 14:30N 58°37' E 016°15'0 0.0
2018-May-15 14:00N 58°37' E 016°15'0 0.0
2018-May-15 13:30N 58°37' E 016°15'0 0.0
2018-May-15 12:59N 58°37' E 016°15'0 0.0
2018-May-15 12:29N 58°37' E 016°15'0 0.0
2018-May-15 11:59N 58°37' E 016°15'  

Dump ship's entire track history